Time;durP1;ratioP1;P1;durP2;ratioP2;P2;SDS_P1;SDS_P2;PMS_P1;PMS_P2;Temp;Humidity;BMP_temperature;BMP_pressure;BME280_temperature;BME280_humidity;BME280_pressure;Samples;Min_cycle;Max_cycle;Signal;HPM_P1;HPM_P2
2021/05/19 00:02:10;;;;;;;6.60;6.10;;;;;;;;;;4976782;28;20275;-83
2021/05/19 00:04:36;;;;;;;7.33;6.73;;;;;;;;;;4958981;28;20197;-83
2021/05/19 00:07:02;;;;;;;6.60;6.00;;;;;;;;;;4958307;28;20659;-83
2021/05/19 00:09:29;;;;;;;7.43;6.73;;;;;;;;;;4967379;28;20622;-83
2021/05/19 00:11:55;;;;;;;7.10;6.50;;;;;;;;;;4966189;28;20188;-83
2021/05/19 00:14:21;;;;;;;6.87;6.17;;;;;;;;;;4958868;28;20686;-83
2021/05/19 00:16:49;;;;;;;7.00;6.40;;;;;;;;;;4967738;28;20218;-83
2021/05/19 00:19:19;;;;;;;7.40;6.80;;;;;;;;;;4969709;28;20570;-83
2021/05/19 00:21:45;;;;;;;7.17;6.47;;;;;;;;;;4960914;28;20180;-83
2021/05/19 00:24:11;;;;;;;6.97;6.37;;;;;;;;;;4966961;28;20188;-82
2021/05/19 00:26:38;;;;;;;7.40;6.77;;;;;;;;;;4969435;28;20184;-82
2021/05/19 00:29:05;;;;;;;7.23;6.63;;;;;;;;;;4968566;28;20588;-83
2021/05/19 00:31:33;;;;;;;6.80;6.30;;;;;;;;;;4971448;28;20187;-83
2021/05/19 00:33:59;;;;;;;6.70;6.20;;;;;;;;;;4962369;28;20192;-82
2021/05/19 00:36:25;;;;;;;7.07;6.47;;;;;;;;;;4966363;28;20537;-82
2021/05/19 00:38:53;;;;;;;7.23;6.53;;;;;;;;;;4968041;28;20311;-82
2021/05/19 00:41:19;;;;;;;6.47;5.97;;;;;;;;;;4968588;28;20705;-82
2021/05/19 00:43:45;;;;;;;7.17;6.47;;;;;;;;;;4969152;28;20238;-82
2021/05/19 00:46:12;;;;;;;7.20;6.53;;;;;;;;;;4969245;28;20560;-82
2021/05/19 00:48:38;;;;;;;7.20;6.60;;;;;;;;;;4963739;28;20237;-82
2021/05/19 00:51:05;;;;;;;6.73;6.17;;;;;;;;;;4968763;28;20688;-83
2021/05/19 00:53:31;;;;;;;6.87;6.17;;;;;;;;;;4970328;28;20262;-83
2021/05/19 00:55:57;;;;;;;7.77;7.07;;;;;;;;;;4964756;28;20250;-83
2021/05/19 00:58:24;;;;;;;6.93;6.33;;;;;;;;;;4984636;28;20665;-83
2021/05/19 01:00:50;;;;;;;7.73;7.07;;;;;;;;;;4968595;28;20214;-83
2021/05/19 01:03:16;;;;;;;7.73;7.03;;;;;;;;;;4968267;28;20524;-83
2021/05/19 01:05:54;;;;;;;7.50;6.80;;;;;;;;;;4975220;28;20179;-83
2021/05/19 01:11:09;;;;;;;7.67;6.97;;;;;;;;;;4969916;28;20229;-82
2021/05/19 01:13:36;;;;;;;7.70;7.00;;;;;;;;;;4969082;28;20194;-83
2021/05/19 01:16:02;;;;;;;7.40;6.80;;;;;;;;;;4976404;28;20293;-83
2021/05/19 01:18:28;;;;;;;8.17;7.37;;;;;;;;;;4969847;28;20540;-83
2021/05/19 01:20:58;;;;;;;7.50;6.80;;;;;;;;;;4964758;28;20187;-83
2021/05/19 01:23:27;;;;;;;8.43;7.50;;;;;;;;;;4966103;28;20329;-83
2021/05/19 01:25:54;;;;;;;8.60;7.90;;;;;;;;;;4963463;28;20186;-83
2021/05/19 01:28:20;;;;;;;8.77;7.97;;;;;;;;;;4967805;28;20179;-83
2021/05/19 01:30:46;;;;;;;8.63;7.93;;;;;;;;;;4967659;28;20438;-82
2021/05/19 01:33:12;;;;;;;8.10;7.47;;;;;;;;;;4968713;28;20279;-82
2021/05/19 01:35:39;;;;;;;8.07;7.37;;;;;;;;;;4967402;28;20528;-83
2021/05/19 01:38:06;;;;;;;8.20;7.50;;;;;;;;;;4967445;28;20278;-82
2021/05/19 01:40:33;;;;;;;9.97;7.73;;;;;;;;;;4968220;28;20300;-82
2021/05/19 01:42:59;;;;;;;8.30;7.50;;;;;;;;;;4968077;28;20172;-82
2021/05/19 01:45:26;;;;;;;7.93;7.23;;;;;;;;;;4967501;28;20207;-82
2021/05/19 01:47:53;;;;;;;7.47;6.87;;;;;;;;;;4967257;28;20307;-83
2021/05/19 01:50:30;;;;;;;7.90;7.13;;;;;;;;;;4963620;28;20189;-82
2021/05/19 01:52:58;;;;;;;8.27;7.50;;;;;;;;;;4960940;28;20336;-83
2021/05/19 01:55:24;;;;;;;7.67;6.97;;;;;;;;;;4960508;28;20184;-83
2021/05/19 01:57:51;;;;;;;7.27;6.67;;;;;;;;;;4964297;28;20260;-83
2021/05/19 02:00:19;;;;;;;8.03;7.33;;;;;;;;;;4968008;28;20282;-83
2021/05/19 02:02:45;;;;;;;8.00;7.30;;;;;;;;;;4981759;28;20199;-83
2021/05/19 02:05:11;;;;;;;7.97;7.20;;;;;;;;;;4977409;28;20180;-82
2021/05/19 02:07:37;;;;;;;8.00;7.30;;;;;;;;;;5025244;28;20180;-83
2021/05/19 02:10:05;;;;;;;7.43;6.83;;;;;;;;;;4990253;28;20198;-82
2021/05/19 02:12:31;;;;;;;8.27;7.50;;;;;;;;;;4967273;28;20200;-83
2021/05/19 02:14:57;;;;;;;7.83;7.13;;;;;;;;;;4971107;28;20241;-83
2021/05/19 02:17:26;;;;;;;8.13;7.43;;;;;;;;;;4958962;28;20188;-83
2021/05/19 02:19:52;;;;;;;8.73;7.93;;;;;;;;;;4966101;28;20218;-83
2021/05/19 02:22:18;;;;;;;8.77;7.97;;;;;;;;;;4990526;28;20489;-83
2021/05/19 02:24:44;;;;;;;8.80;8.00;;;;;;;;;;4968395;28;20210;-83
2021/05/19 02:27:10;;;;;;;8.23;7.53;;;;;;;;;;4966996;28;20180;-83
2021/05/19 02:29:36;;;;;;;8.63;7.93;;;;;;;;;;5008122;28;20548;-83
2021/05/19 02:32:02;;;;;;;8.70;7.90;;;;;;;;;;4964181;28;20207;-83
2021/05/19 02:34:28;;;;;;;8.27;7.57;;;;;;;;;;4965871;28;20188;-83
2021/05/19 02:36:54;;;;;;;8.97;7.73;;;;;;;;;;4966509;28;20184;-83
2021/05/19 02:39:20;;;;;;;9.03;8.13;;;;;;;;;;4964603;28;20207;-83
2021/05/19 02:41:47;;;;;;;8.77;8.00;;;;;;;;;;4963800;28;20265;-83
2021/05/19 02:44:16;;;;;;;9.20;8.30;;;;;;;;;;4965030;28;20294;-83
2021/05/19 02:46:42;;;;;;;9.43;8.63;;;;;;;;;;4964613;28;20683;-83
2021/05/19 02:49:08;;;;;;;9.40;8.60;;;;;;;;;;4963707;28;20196;-83
2021/05/19 02:51:38;;;;;;;9.93;9.03;;;;;;;;;;4958994;28;20184;-82
2021/05/19 02:54:05;;;;;;;8.70;7.80;;;;;;;;;;4962985;28;20207;-82
2021/05/19 02:56:31;;;;;;;9.67;8.67;;;;;;;;;;4966610;28;20213;-83
2021/05/19 02:58:57;;;;;;;8.77;7.87;;;;;;;;;;4967107;28;20200;-82
2021/05/19 03:01:23;;;;;;;10.30;9.33;;;;;;;;;;4968112;28;20187;-82
2021/05/19 03:03:50;;;;;;;9.93;8.43;;;;;;;;;;4951450;28;20215;-82
2021/05/19 03:06:16;;;;;;;10.13;9.23;;;;;;;;;;4966742;28;20625;-83
2021/05/19 03:08:42;;;;;;;9.83;8.93;;;;;;;;;;4966432;28;20555;-83
2021/05/19 03:11:08;;;;;;;9.40;8.60;;;;;;;;;;4969360;28;20180;-83
2021/05/19 03:13:34;;;;;;;10.30;9.27;;;;;;;;;;4958403;28;20183;-82
2021/05/19 03:16:00;;;;;;;9.10;8.30;;;;;;;;;;4987678;28;20658;-82
2021/05/19 03:18:26;;;;;;;9.83;8.93;;;;;;;;;;4968017;28;20184;-82
2021/05/19 03:20:52;;;;;;;9.43;8.53;;;;;;;;;;4962135;28;20177;-82
2021/05/19 03:23:18;;;;;;;10.43;9.43;;;;;;;;;;4965538;28;20211;-82
2021/05/19 03:25:45;;;;;;;9.70;8.83;;;;;;;;;;4965799;28;20247;-83
2021/05/19 03:28:11;;;;;;;9.30;8.40;;;;;;;;;;4957953;28;20220;-83
2021/05/19 03:30:37;;;;;;;9.60;8.77;;;;;;;;;;4972253;28;20188;-82
2021/05/19 03:33:04;;;;;;;10.33;9.20;;;;;;;;;;4965891;28;20183;-82
2021/05/19 03:35:30;;;;;;;10.00;9.10;;;;;;;;;;4966984;28;20192;-82
2021/05/19 03:37:56;;;;;;;8.87;8.07;;;;;;;;;;4964888;28;20180;-83
2021/05/19 03:40:25;;;;;;;9.20;8.40;;;;;;;;;;4961696;28;20242;-83
2021/05/19 03:42:51;;;;;;;9.97;9.07;;;;;;;;;;4965852;28;20699;-82
2021/05/19 03:45:19;;;;;;;8.83;8.00;;;;;;;;;;4968834;28;20523;-82
2021/05/19 03:47:47;;;;;;;10.00;9.10;;;;;;;;;;4972638;28;20192;-82
2021/05/19 03:50:14;;;;;;;9.07;8.17;;;;;;;;;;4995495;28;20701;-82
2021/05/19 03:52:40;;;;;;;10.10;9.10;;;;;;;;;;4967173;28;20517;-82
2021/05/19 03:55:08;;;;;;;9.50;8.60;;;;;;;;;;4970651;28;20504;-83
2021/05/19 03:57:34;;;;;;;8.33;7.63;;;;;;;;;;4969550;28;20186;-83
2021/05/19 04:00:00;;;;;;;9.33;8.53;;;;;;;;;;4969936;28;20606;-82
2021/05/19 04:02:26;;;;;;;8.77;7.97;;;;;;;;;;4969643;28;20172;-82
2021/05/19 04:04:52;;;;;;;9.80;8.80;;;;;;;;;;4964095;28;20184;-82
2021/05/19 04:07:18;;;;;;;8.80;7.83;;;;;;;;;;4984263;28;20275;-83
2021/05/19 04:09:44;;;;;;;8.90;8.10;;;;;;;;;;4970255;28;20199;-82
2021/05/19 04:12:10;;;;;;;8.37;7.57;;;;;;;;;;4969858;28;20516;-83
2021/05/19 04:14:36;;;;;;;9.70;8.70;;;;;;;;;;4984729;28;20234;-82
2021/05/19 04:17:02;;;;;;;9.30;8.20;;;;;;;;;;4968596;28;20188;-82
2021/05/19 04:19:28;;;;;;;8.60;7.87;;;;;;;;;;5000906;28;20211;-83
2021/05/19 04:21:54;;;;;;;8.87;7.97;;;;;;;;;;4964360;28;20473;-83
2021/05/19 04:24:20;;;;;;;7.37;6.67;;;;;;;;;;4965249;28;20489;-82
2021/05/19 04:26:47;;;;;;;8.70;7.90;;;;;;;;;;4967164;28;20180;-82
2021/05/19 04:29:13;;;;;;;8.53;7.80;;;;;;;;;;4996083;28;20188;-82
2021/05/19 04:31:39;;;;;;;8.60;7.80;;;;;;;;;;4967258;28;20495;-83
2021/05/19 04:34:05;;;;;;;8.70;7.90;;;;;;;;;;4971258;28;20289;-83
2021/05/19 04:36:31;;;;;;;9.37;8.47;;;;;;;;;;4970609;28;20191;-83
2021/05/19 04:38:57;;;;;;;8.17;7.47;;;;;;;;;;4961882;28;20560;-83
2021/05/19 04:41:23;;;;;;;8.53;7.80;;;;;;;;;;4971861;28;20596;-83
2021/05/19 04:43:49;;;;;;;8.87;8.07;;;;;;;;;;4969453;28;20230;-83
2021/05/19 04:46:16;;;;;;;8.93;8.13;;;;;;;;;;4972369;28;20188;-83
2021/05/19 04:48:42;;;;;;;8.77;7.97;;;;;;;;;;4968687;28;20583;-83
2021/05/19 04:51:08;;;;;;;8.63;7.83;;;;;;;;;;4969153;28;20769;-83
2021/05/19 04:53:34;;;;;;;8.87;8.07;;;;;;;;;;4968323;28;20653;-82
2021/05/19 04:56:00;;;;;;;8.07;7.27;;;;;;;;;;4971742;28;20211;-83
2021/05/19 04:58:26;;;;;;;8.23;7.53;;;;;;;;;;4971260;28;20188;-83
2021/05/19 05:00:56;;;;;;;8.53;7.73;;;;;;;;;;4971725;28;20268;-83
2021/05/19 05:03:23;;;;;;;8.43;7.70;;;;;;;;;;4968660;28;20540;-83
2021/05/19 05:05:53;;;;;;;8.60;7.83;;;;;;;;;;4995261;28;20187;-83
2021/05/19 05:08:20;;;;;;;8.80;8.00;;;;;;;;;;4988112;28;20492;-83
2021/05/19 05:10:46;;;;;;;8.60;7.80;;;;;;;;;;4970088;28;20211;-83
2021/05/19 05:13:12;;;;;;;8.37;7.67;;;;;;;;;;4961693;28;20382;-83
2021/05/19 05:15:38;;;;;;;9.50;8.60;;;;;;;;;;4969134;28;20578;-83
2021/05/19 05:18:04;;;;;;;8.87;8.07;;;;;;;;;;4968294;28;20278;-83
2021/05/19 05:20:30;;;;;;;9.43;8.53;;;;;;;;;;4961962;28;20204;-83
2021/05/19 05:22:56;;;;;;;9.30;8.40;;;;;;;;;;4967617;28;20253;-83
2021/05/19 05:25:22;;;;;;;8.07;7.37;;;;;;;;;;4968905;28;20230;-83
2021/05/19 05:27:57;;;;;;;9.23;8.37;;;;;;;;;;4975800;28;20195;-83
2021/05/19 05:30:23;;;;;;;8.03;7.33;;;;;;;;;;4968996;28;20192;-83
2021/05/19 05:32:49;;;;;;;9.03;8.13;;;;;;;;;;4994485;28;20195;-84
2021/05/19 05:35:16;;;;;;;8.80;8.00;;;;;;;;;;4972364;28;20191;-84
2021/05/19 05:37:42;;;;;;;9.50;8.63;;;;;;;;;;4969775;28;20195;-85
2021/05/19 05:40:09;;;;;;;8.73;7.93;;;;;;;;;;4972210;28;20200;-86
2021/05/19 05:42:35;;;;;;;8.87;8.07;;;;;;;;;;4970838;28;20183;-85
2021/05/19 05:45:02;;;;;;;8.83;8.10;;;;;;;;;;4971224;28;20558;-85
2021/05/19 05:47:28;;;;;;;9.10;8.30;;;;;;;;;;4970852;28;20192;-84
2021/05/19 05:49:58;;;;;;;9.27;8.40;;;;;;;;;;4977460;28;20582;-85
2021/05/19 05:52:26;;;;;;;9.80;8.87;;;;;;;;;;4954333;28;20184;-84
2021/05/19 05:54:52;;;;;;;9.47;8.47;;;;;;;;;;5002496;28;20237;-84
2021/05/19 05:57:18;;;;;;;9.40;8.60;;;;;;;;;;4966987;28;20188;-84
2021/05/19 05:59:44;;;;;;;9.73;8.83;;;;;;;;;;4962619;28;20635;-84
2021/05/19 06:02:10;;;;;;;10.47;9.47;;;;;;;;;;4968222;28;20608;-84
2021/05/19 06:04:37;;;;;;;9.60;8.73;;;;;;;;;;4969997;28;20533;-84
2021/05/19 06:07:03;;;;;;;9.33;8.53;;;;;;;;;;4968379;28;20271;-84
2021/05/19 06:09:42;;;;;;;9.90;9.00;;;;;;;;;;4963601;28;20180;-82
2021/05/19 06:12:23;;;;;;;10.23;9.30;;;;;;;;;;4970448;28;20215;-82
2021/05/19 06:17:43;;;;;;;9.40;8.53;;;;;;;;;;4966895;28;20261;-82
2021/05/19 06:20:09;;;;;;;9.23;8.33;;;;;;;;;;4969533;28;20246;-81
2021/05/19 06:22:51;;;;;;;9.43;8.53;;;;;;;;;;4965580;28;20195;-82
2021/05/19 06:25:18;;;;;;;10.47;9.17;;;;;;;;;;4988766;28;20482;-82
2021/05/19 06:27:44;;;;;;;10.43;9.43;;;;;;;;;;4978708;28;20213;-82
2021/05/19 06:30:11;;;;;;;9.90;8.83;;;;;;;;;;4970585;28;20198;-82
2021/05/19 06:32:37;;;;;;;9.47;8.57;;;;;;;;;;4968507;28;20195;-82
2021/05/19 06:35:03;;;;;;;9.03;8.23;;;;;;;;;;4974097;28;20188;-82
2021/05/19 06:37:29;;;;;;;9.97;9.07;;;;;;;;;;4965994;28;20211;-82
2021/05/19 06:39:55;;;;;;;9.03;8.13;;;;;;;;;;4974848;28;20559;-83
2021/05/19 06:42:22;;;;;;;9.93;8.57;;;;;;;;;;4972360;28;20188;-82
2021/05/19 06:44:48;;;;;;;8.90;8.10;;;;;;;;;;4969723;28;20204;-82
2021/05/19 06:47:14;;;;;;;9.20;8.40;;;;;;;;;;4973628;28;20191;-83
2021/05/19 06:49:42;;;;;;;8.90;8.07;;;;;;;;;;4969635;28;20176;-82
2021/05/19 06:52:08;;;;;;;8.60;7.87;;;;;;;;;;4969307;28;20196;-82
2021/05/19 06:54:34;;;;;;;9.90;8.13;;;;;;;;;;4970618;28;20184;-82
2021/05/19 06:57:00;;;;;;;12.10;9.07;;;;;;;;;;4970443;28;20187;-82
2021/05/19 06:59:27;;;;;;;9.57;7.77;;;;;;;;;;4976911;28;20207;-82
2021/05/19 07:01:53;;;;;;;9.23;7.77;;;;;;;;;;4976228;28;20200;-82
2021/05/19 07:04:20;;;;;;;13.13;8.97;;;;;;;;;;4961509;28;20199;-82
2021/05/19 07:06:46;;;;;;;9.77;8.00;;;;;;;;;;4977763;28;20266;-82
2021/05/19 07:09:12;;;;;;;11.37;8.30;;;;;;;;;;4961327;28;20309;-83
2021/05/19 07:11:38;;;;;;;8.83;7.93;;;;;;;;;;4969396;28;20187;-83
2021/05/19 07:14:06;;;;;;;9.07;8.17;;;;;;;;;;4962887;28;20188;-83
2021/05/19 07:16:34;;;;;;;11.03;7.97;;;;;;;;;;4968558;28;20319;-83
2021/05/19 07:19:01;;;;;;;10.43;7.70;;;;;;;;;;4980163;28;20564;-83
2021/05/19 07:21:27;;;;;;;9.17;7.57;;;;;;;;;;4973018;28;20180;-83
2021/05/19 07:23:53;;;;;;;9.43;8.40;;;;;;;;;;4968345;28;20246;-83
2021/05/19 07:26:21;;;;;;;8.27;7.37;;;;;;;;;;4971162;28;20176;-83
2021/05/19 07:28:47;;;;;;;9.33;8.07;;;;;;;;;;4971951;28;20192;-84
2021/05/19 07:31:13;;;;;;;8.47;7.27;;;;;;;;;;4976862;28;20267;-84
2021/05/19 07:33:39;;;;;;;9.17;8.13;;;;;;;;;;4966568;28;20184;-84
2021/05/19 07:36:06;;;;;;;12.00;8.80;;;;;;;;;;4975123;28;20187;-85
2021/05/19 07:38:32;;;;;;;8.83;7.93;;;;;;;;;;4973859;28;20275;-85
2021/05/19 07:40:58;;;;;;;7.10;6.40;;;;;;;;;;4979263;28;20184;-85
2021/05/19 07:43:24;;;;;;;9.20;7.87;;;;;;;;;;4971390;28;20229;-85
2021/05/19 07:45:50;;;;;;;11.60;7.87;;;;;;;;;;4982424;28;20212;-85
2021/05/19 07:48:16;;;;;;;8.20;7.03;;;;;;;;;;4974554;28;20673;-85
2021/05/19 07:50:42;;;;;;;8.53;7.23;;;;;;;;;;4976067;28;20200;-85
2021/05/19 07:53:08;;;;;;;10.40;7.50;;;;;;;;;;4981798;28;20188;-85
2021/05/19 07:55:44;;;;;;;9.37;7.50;;;;;;;;;;4975691;28;20192;-84
2021/05/19 07:58:24;;;;;;;9.00;6.63;;;;;;;;;;4974927;28;20547;-84
2021/05/19 08:03:19;;;;;;;8.37;6.57;;;;;;;;;;4973047;28;20191;-82
2021/05/19 08:05:45;;;;;;;7.93;6.57;;;;;;;;;;4972697;28;20187;-82
2021/05/19 08:08:11;;;;;;;8.60;6.77;;;;;;;;;;4972971;28;20182;-82
2021/05/19 08:10:38;;;;;;;8.67;6.50;;;;;;;;;;4972036;28;20211;-82
2021/05/19 08:13:04;;;;;;;8.10;5.90;;;;;;;;;;5006525;28;20180;-82
2021/05/19 08:15:30;;;;;;;10.47;6.17;;;;;;;;;;4969351;28;20243;-82
2021/05/19 08:17:57;;;;;;;6.73;6.13;;;;;;;;;;4970921;28;20192;-82
2021/05/19 08:20:23;;;;;;;10.53;6.27;;;;;;;;;;4964117;28;20302;-82
2021/05/19 08:22:49;;;;;;;6.07;5.47;;;;;;;;;;4973113;28;20310;-82
2021/05/19 08:25:15;;;;;;;9.90;7.23;;;;;;;;;;4969534;28;20253;-82
2021/05/19 08:27:41;;;;;;;7.90;6.50;;;;;;;;;;4974353;28;20184;-82
2021/05/19 08:30:10;;;;;;;6.83;5.53;;;;;;;;;;4972344;28;20183;-82
2021/05/19 08:32:37;;;;;;;7.97;5.77;;;;;;;;;;4983714;28;20215;-82
2021/05/19 08:35:03;;;;;;;9.03;5.67;;;;;;;;;;4971948;28;20192;-82
2021/05/19 08:37:29;;;;;;;9.07;5.97;;;;;;;;;;4968192;28;21146;-82
2021/05/19 08:39:55;;;;;;;7.40;5.50;;;;;;;;;;4970324;28;20203;-82
2021/05/19 08:42:21;;;;;;;6.37;4.97;;;;;;;;;;4971108;28;20190;-82
2021/05/19 08:44:47;;;;;;;6.33;4.70;;;;;;;;;;4971723;28;20239;-82
2021/05/19 08:47:16;;;;;;;5.63;4.60;;;;;;;;;;5025060;28;20589;-82
2021/05/19 08:49:45;;;;;;;7.10;4.27;;;;;;;;;;4971493;28;20244;-82
2021/05/19 08:52:11;;;;;;;7.40;5.20;;;;;;;;;;4970819;28;20192;-82
2021/05/19 08:54:37;;;;;;;8.03;5.07;;;;;;;;;;4986502;28;20598;-82
2021/05/19 08:57:03;;;;;;;8.73;4.93;;;;;;;;;;4974334;28;20179;-82
2021/05/19 08:59:29;;;;;;;5.77;4.43;;;;;;;;;;4960330;28;20251;-82
2021/05/19 09:01:55;;;;;;;5.37;4.33;;;;;;;;;;4972428;28;20212;-82
2021/05/19 09:04:24;;;;;;;7.93;4.87;;;;;;;;;;4976762;28;20183;-82
2021/05/19 09:06:54;;;;;;;5.83;4.00;;;;;;;;;;4981819;28;20203;-81
2021/05/19 09:09:25;;;;;;;9.00;4.53;;;;;;;;;;4975505;28;20183;-81
2021/05/19 09:11:55;;;;;;;4.97;4.57;;;;;;;;;;5008800;28;20643;-81
2021/05/19 09:14:21;;;;;;;5.43;3.93;;;;;;;;;;4962967;28;20180;-81
2021/05/19 09:16:47;;;;;;;6.77;4.07;;;;;;;;;;4971508;28;20635;-81
2021/05/19 09:19:13;;;;;;;3.93;3.53;;;;;;;;;;4970183;28;20238;-82
2021/05/19 09:21:44;;;;;;;5.57;4.40;;;;;;;;;;4969166;28;20938;-78
2021/05/19 09:24:21;;;;;;;5.03;4.40;;;;;;;;;;4967543;28;20557;-77
2021/05/19 09:26:51;;;;;;;5.60;3.57;;;;;;;;;;4990944;28;20773;-78
2021/05/19 09:29:25;;;;;;;6.27;3.73;;;;;;;;;;4960789;28;20195;-83
2021/05/19 09:31:55;;;;;;;4.53;3.00;;;;;;;;;;4994610;28;20187;-83
2021/05/19 09:34:25;;;;;;;4.00;3.20;;;;;;;;;;4962945;28;20675;-83
2021/05/19 09:36:51;;;;;;;5.80;3.43;;;;;;;;;;4967342;28;20189;-83
2021/05/19 09:39:18;;;;;;;4.07;3.30;;;;;;;;;;4970454;28;20538;-84
2021/05/19 09:41:44;;;;;;;4.17;3.00;;;;;;;;;;4975320;28;20179;-83
2021/05/19 09:44:12;;;;;;;5.47;3.67;;;;;;;;;;4972232;28;20195;-82
2021/05/19 09:46:45;;;;;;;5.53;3.37;;;;;;;;;;5004865;28;20315;-82
2021/05/19 09:49:18;;;;;;;3.80;3.50;;;;;;;;;;4963389;28;20180;-83
2021/05/19 09:51:49;;;;;;;5.40;2.80;;;;;;;;;;4966898;28;20203;-82
2021/05/19 09:54:30;;;;;;;7.47;3.30;;;;;;;;;;4966927;28;20668;-82
2021/05/19 09:56:57;;;;;;;4.53;2.93;;;;;;;;;;4985965;28;20187;-79
2021/05/19 09:59:24;;;;;;;3.60;2.87;;;;;;;;;;4970541;28;20207;-82
2021/05/19 10:01:51;;;;;;;3.70;2.60;;;;;;;;;;4984742;28;20187;-82
2021/05/19 10:04:18;;;;;;;4.27;3.00;;;;;;;;;;4978643;28;20662;-81
2021/05/19 10:06:46;;;;;;;5.13;3.00;;;;;;;;;;4973194;28;20496;-80
2021/05/19 10:09:12;;;;;;;6.33;3.53;;;;;;;;;;4974807;28;20183;-80
2021/05/19 10:11:38;;;;;;;3.60;2.80;;;;;;;;;;4969470;28;20262;-80
2021/05/19 10:14:09;;;;;;;5.13;2.50;;;;;;;;;;4959639;28;20180;-78
2021/05/19 10:16:35;;;;;;;3.77;2.60;;;;;;;;;;4966880;28;20259;-77
2021/05/19 10:19:01;;;;;;;3.77;2.57;;;;;;;;;;4973547;28;20196;-78
2021/05/19 10:21:30;;;;;;;4.00;2.80;;;;;;;;;;4968804;28;20424;-77
2021/05/19 10:24:04;;;;;;;4.07;2.70;;;;;;;;;;4960252;28;20226;-77
2021/05/19 10:26:32;;;;;;;3.93;2.63;;;;;;;;;;4967047;28;20702;-78
2021/05/19 10:28:59;;;;;;;4.00;2.60;;;;;;;;;;4967126;28;20514;-82
2021/05/19 10:31:43;;;;;;;3.53;2.73;;;;;;;;;;4970131;28;20180;-82
2021/05/19 10:34:09;;;;;;;11.73;3.00;;;;;;;;;;4960600;28;20223;-81
2021/05/19 10:36:43;;;;;;;5.13;3.07;;;;;;;;;;4968804;28;20229;-82
2021/05/19 10:39:11;;;;;;;4.60;2.33;;;;;;;;;;4969067;28;21040;-82
2021/05/19 10:41:37;;;;;;;8.60;3.03;;;;;;;;;;4970492;28;20494;-81
2021/05/19 10:44:08;;;;;;;8.00;2.33;;;;;;;;;;4968464;28;20192;-82
2021/05/19 10:46:51;;;;;;;5.87;2.57;;;;;;;;;;4961983;28;20192;-81
2021/05/19 10:49:19;;;;;;;3.53;2.17;;;;;;;;;;4970431;28;20180;-82
2021/05/19 10:51:56;;;;;;;4.93;2.80;;;;;;;;;;4971721;28;20179;-82
2021/05/19 10:57:30;;;;;;;2.97;2.43;;;;;;;;;;4970341;28;20211;-82
2021/05/19 11:00:16;;;;;;;7.17;2.63;;;;;;;;;;4969176;28;20587;-82
2021/05/19 11:02:55;;;;;;;5.50;2.60;;;;;;;;;;4965582;28;20198;-81
2021/05/19 11:05:22;;;;;;;5.27;2.50;;;;;;;;;;4972275;28;20524;-81
2021/05/19 11:08:06;;;;;;;8.70;2.73;;;;;;;;;;4968353;28;20191;-81
2021/05/19 11:10:49;;;;;;;4.73;2.87;;;;;;;;;;4966477;28;20528;-82
2021/05/19 11:13:16;;;;;;;4.43;2.30;;;;;;;;;;4961534;28;20187;-82
2021/05/19 11:21:17;;;;;;;5.87;2.57;;;;;;;;;;5000848;28;20282;-82
2021/05/19 11:24:02;;;;;;;5.33;2.20;;;;;;;;;;4959439;28;20187;-82
2021/05/19 11:26:35;;;;;;;4.80;2.70;;;;;;;;;;5002079;28;20271;-83
2021/05/19 11:29:01;;;;;;;6.23;2.90;;;;;;;;;;5007769;28;20703;-82
2021/05/19 11:31:32;;;;;;;8.43;2.53;;;;;;;;;;4973676;28;20640;-83
2021/05/19 11:34:00;;;;;;;2.77;1.93;;;;;;;;;;4978912;28;20377;-82
2021/05/19 11:36:42;;;;;;;5.80;3.27;;;;;;;;;;4973046;28;20180;-82
2021/05/19 11:39:22;;;;;;;4.17;2.67;;;;;;;;;;4965454;28;20211;-82
2021/05/19 11:41:54;;;;;;;6.33;2.37;;;;;;;;;;4973165;28;20545;-83
2021/05/19 11:44:33;;;;;;;6.43;2.50;;;;;;;;;;4966982;28;20588;-85
2021/05/19 11:47:00;;;;;;;3.67;2.20;;;;;;;;;;4971450;28;20191;-82
2021/05/19 11:49:26;;;;;;;4.80;1.50;;;;;;;;;;4971468;28;20199;-83
2021/05/19 11:51:56;;;;;;;2.47;1.37;;;;;;;;;;4971976;28;20203;-83
2021/05/19 11:54:32;;;;;;;1.10;1.00;;;;;;;;;;4971523;28;20598;-83
2021/05/19 11:57:03;;;;;;;2.47;1.50;;;;;;;;;;4972246;28;20191;-82
2021/05/19 11:59:38;;;;;;;4.23;1.60;;;;;;;;;;4963534;28;20212;-82
2021/05/19 12:02:04;;;;;;;3.27;1.50;;;;;;;;;;4969356;28;20180;-82
2021/05/19 12:04:32;;;;;;;2.33;1.30;;;;;;;;;;4966614;28;20180;-82
2021/05/19 12:07:02;;;;;;;5.30;1.60;;;;;;;;;;4974642;28;20291;-82
2021/05/19 12:09:32;;;;;;;3.23;1.60;;;;;;;;;;4963200;28;20188;-82
2021/05/19 12:12:11;;;;;;;3.33;1.43;;;;;;;;;;4971611;28;20195;-82
2021/05/19 12:14:41;;;;;;;2.37;1.50;;;;;;;;;;4963741;28;20212;-82
2021/05/19 12:17:10;;;;;;;3.87;2.17;;;;;;;;;;4972588;28;20184;-82
2021/05/19 12:19:38;;;;;;;2.50;1.30;;;;;;;;;;4966050;28;20203;-82
2021/05/19 12:22:05;;;;;;;1.50;1.30;;;;;;;;;;4973596;28;20180;-81
2021/05/19 12:24:32;;;;;;;2.87;1.30;;;;;;;;;;4973207;28;20176;-82
2021/05/19 12:26:58;;;;;;;3.60;1.97;;;;;;;;;;4986343;28;20187;-83
2021/05/19 12:30:08;;;;;;;2.67;1.20;;;;;;;;;;4971726;28;20769;-79
2021/05/19 12:32:34;;;;;;;1.20;1.03;;;;;;;;;;4960085;28;20203;-80
2021/05/19 12:35:08;;;;;;;1.30;1.13;;;;;;;;;;4959195;28;20261;-80
2021/05/19 12:37:44;;;;;;;3.70;1.60;;;;;;;;;;4968930;28;20194;-81
2021/05/19 12:40:15;;;;;;;3.27;1.60;;;;;;;;;;4974607;28;20212;-77
2021/05/19 12:42:42;;;;;;;3.80;1.37;;;;;;;;;;4965670;28;20192;-76
2021/05/19 12:45:09;;;;;;;1.77;1.20;;;;;;;;;;4965250;28;20542;-76
2021/05/19 12:47:35;;;;;;;4.60;1.23;;;;;;;;;;4966744;28;20581;-76
2021/05/19 12:50:04;;;;;;;4.37;2.03;;;;;;;;;;4968594;28;20532;-76
2021/05/19 12:52:31;;;;;;;1.87;1.20;;;;;;;;;;4965791;28;20202;-76
2021/05/19 12:54:57;;;;;;;3.73;1.30;;;;;;;;;;4966512;28;20275;-76
2021/05/19 12:57:27;;;;;;;1.20;1.10;;;;;;;;;;4956172;28;20532;-76
2021/05/19 13:00:15;;;;;;;3.40;1.30;;;;;;;;;;4959789;28;20231;-76
2021/05/19 13:02:43;;;;;;;3.03;1.87;;;;;;;;;;4965200;28;20196;-76
2021/05/19 13:05:17;;;;;;;2.97;2.07;;;;;;;;;;4992944;28;20177;-76
2021/05/19 13:07:45;;;;;;;2.10;1.40;;;;;;;;;;4965908;28;20183;-76
2021/05/19 13:10:22;;;;;;;2.97;1.40;;;;;;;;;;4957010;28;20184;-76
2021/05/19 13:13:09;;;;;;;2.03;1.30;;;;;;;;;;4966376;28;20171;-76
2021/05/19 13:15:43;;;;;;;4.23;1.90;;;;;;;;;;4968458;28;20549;-76
2021/05/19 13:19:07;;;;;;;4.80;1.40;;;;;;;;;;4963969;28;20189;-78
2021/05/19 13:21:16;;;;;;;2.67;1.20;;;;;;;;;;4962230;28;20610;-78
2021/05/19 13:23:47;;;;;;;6.47;2.10;;;;;;;;;;4965496;28;20577;-77
2021/05/19 13:26:13;;;;;;;2.37;1.43;;;;;;;;;;4965109;28;20260;-77
2021/05/19 13:28:41;;;;;;;4.27;1.90;;;;;;;;;;4966409;28;20541;-76
2021/05/19 13:31:07;;;;;;;2.83;2.20;;;;;;;;;;4963661;28;20242;-77
2021/05/19 13:39:04;;;;;;;3.13;1.80;;;;;;;;;;4966780;28;20206;-77
2021/05/19 13:41:30;;;;;;;3.60;1.80;;;;;;;;;;4971165;28;20194;-77
2021/05/19 13:43:57;;;;;;;7.07;2.50;;;;;;;;;;4954125;28;20650;-76
2021/05/19 13:46:23;;;;;;;7.43;3.07;;;;;;;;;;4981320;28;20709;-76
2021/05/19 13:48:49;;;;;;;3.17;1.93;;;;;;;;;;4966482;28;20229;-78
2021/05/19 13:51:15;;;;;;;3.43;2.17;;;;;;;;;;4966519;28;20232;-78
2021/05/19 13:53:41;;;;;;;6.13;1.97;;;;;;;;;;4966793;28;20291;-81
2021/05/19 13:56:07;;;;;;;3.03;2.00;;;;;;;;;;4972326;28;20623;-79
2021/05/19 13:58:34;;;;;;;2.50;2.10;;;;;;;;;;4982382;28;20488;-81
2021/05/19 14:01:01;;;;;;;2.80;2.30;;;;;;;;;;4992007;28;20200;-82
2021/05/19 14:03:27;;;;;;;4.20;2.10;;;;;;;;;;5026607;28;20234;-82
2021/05/19 14:05:58;;;;;;;3.23;1.90;;;;;;;;;;5051620;28;20567;-82
2021/05/19 14:08:26;;;;;;;4.40;2.40;;;;;;;;;;4977572;28;20261;-82
2021/05/19 14:11:09;;;;;;;3.50;2.23;;;;;;;;;;5002316;28;20654;-81
2021/05/19 14:13:43;;;;;;;2.53;2.33;;;;;;;;;;5002260;28;20184;-80
2021/05/19 14:29:13;;;;;;;2.43;2.23;;;;;;;;;;4973265;28;20184;-83
2021/05/19 14:31:39;;;;;;;4.07;2.60;;;;;;;;;;4995223;28;20185;-79
2021/05/19 14:34:05;;;;;;;2.77;2.50;;;;;;;;;;4978197;28;20647;-80
2021/05/19 14:43:40;;;;;;;4.47;2.57;;;;;;;;;;4971571;28;20202;-80
2021/05/19 14:45:13;;;;;;;2.80;2.50;;;;;;;;;;4986951;28;20289;-80
2021/05/19 15:01:11;;;;;;;3.17;2.43;;;;;;;;;;4975992;28;20234;-81
2021/05/19 15:03:37;;;;;;;2.53;2.33;;;;;;;;;;4983046;28;20172;-81
2021/05/19 15:06:03;;;;;;;8.40;2.60;;;;;;;;;;4969851;28;20233;-81
2021/05/19 15:08:29;;;;;;;3.23;2.57;;;;;;;;;;4964009;28;20188;-81
2021/05/19 15:10:55;;;;;;;3.37;2.73;;;;;;;;;;4966439;28;20227;-81
2021/05/19 15:13:21;;;;;;;3.03;2.70;;;;;;;;;;4967449;28;20310;-81
2021/05/19 15:15:47;;;;;;;3.40;2.60;;;;;;;;;;4967302;28;20224;-81
2021/05/19 15:18:13;;;;;;;2.50;2.30;;;;;;;;;;4956892;28;20193;-81
2021/05/19 15:20:39;;;;;;;2.97;2.57;;;;;;;;;;4992134;28;20219;-81
2021/05/19 15:23:05;;;;;;;4.10;3.67;;;;;;;;;;5003753;28;20191;-81
2021/05/19 15:25:31;;;;;;;3.10;2.80;;;;;;;;;;4998203;28;20283;-81
2021/05/19 15:27:57;;;;;;;4.17;3.17;;;;;;;;;;5000708;28;20253;-81
2021/05/19 15:30:23;;;;;;;2.87;2.67;;;;;;;;;;4997121;28;20601;-77
2021/05/19 15:32:49;;;;;;;4.37;2.80;;;;;;;;;;4975095;28;20184;-80
2021/05/19 15:35:16;;;;;;;2.87;2.37;;;;;;;;;;4971585;28;20645;-80
2021/05/19 15:37:42;;;;;;;2.97;2.77;;;;;;;;;;4981354;28;20275;-80
2021/05/19 15:40:08;;;;;;;4.70;2.50;;;;;;;;;;5006515;28;20284;-80
2021/05/19 15:42:34;;;;;;;4.03;2.33;;;;;;;;;;4970510;28;20650;-80
2021/05/19 15:45:00;;;;;;;5.23;2.63;;;;;;;;;;5028004;28;20239;-80